sensor_id;sensor_type;location;lat;lon;timestamp;P1;durP1;ratioP1;P2;durP2;ratioP2
6121;SDS011;3091;51.506;7.672;2024-02-14T00:00:39;19.33;;;18.53;;
6121;SDS011;3091;51.506;7.672;2024-02-14T00:03:06;18.30;;;17.60;;
6121;SDS011;3091;51.506;7.672;2024-02-14T00:05:32;19.53;;;18.63;;
6121;SDS011;3091;51.506;7.672;2024-02-14T00:07:58;18.77;;;17.97;;
6121;SDS011;3091;51.506;7.672;2024-02-14T00:10:24;18.97;;;18.07;;
6121;SDS011;3091;51.506;7.672;2024-02-14T00:12:51;19.70;;;18.70;;
6121;SDS011;3091;51.506;7.672;2024-02-14T00:15:17;19.63;;;18.70;;
6121;SDS011;3091;51.506;7.672;2024-02-14T00:17:43;19.80;;;18.80;;
6121;SDS011;3091;51.506;7.672;2024-02-14T00:20:09;19.53;;;18.60;;
6121;SDS011;3091;51.506;7.672;2024-02-14T00:22:37;18.90;;;18.00;;
6121;SDS011;3091;51.506;7.672;2024-02-14T00:25:04;21.13;;;20.13;;
6121;SDS011;3091;51.506;7.672;2024-02-14T00:27:32;19.70;;;18.77;;
6121;SDS011;3091;51.506;7.672;2024-02-14T00:29:59;18.97;;;18.07;;
6121;SDS011;3091;51.506;7.672;2024-02-14T00:32:25;19.87;;;18.97;;
6121;SDS011;3091;51.506;7.672;2024-02-14T00:34:51;20.43;;;19.37;;
6121;SDS011;3091;51.506;7.672;2024-02-14T00:37:19;19.73;;;18.30;;
6121;SDS011;3091;51.506;7.672;2024-02-14T00:39:45;18.80;;;17.90;;
6121;SDS011;3091;51.506;7.672;2024-02-14T00:42:13;19.30;;;18.30;;
6121;SDS011;3091;51.506;7.672;2024-02-14T00:44:39;19.30;;;18.30;;
6121;SDS011;3091;51.506;7.672;2024-02-14T00:47:06;18.70;;;17.80;;
6121;SDS011;3091;51.506;7.672;2024-02-14T00:49:34;19.03;;;18.13;;
6121;SDS011;3091;51.506;7.672;2024-02-14T00:52:01;19.30;;;18.40;;
6121;SDS011;3091;51.506;7.672;2024-02-14T00:54:27;19.00;;;18.00;;
6121;SDS011;3091;51.506;7.672;2024-02-14T00:56:53;18.90;;;17.97;;
6121;SDS011;3091;51.506;7.672;2024-02-14T00:59:19;18.90;;;18.10;;
6121;SDS011;3091;51.506;7.672;2024-02-14T01:01:46;18.23;;;17.43;;
6121;SDS011;3091;51.506;7.672;2024-02-14T01:04:12;18.80;;;17.80;;
6121;SDS011;3091;51.506;7.672;2024-02-14T01:06:38;19.97;;;19.07;;
6121;SDS011;3091;51.506;7.672;2024-02-14T01:09:06;19.60;;;18.67;;
6121;SDS011;3091;51.506;7.672;2024-02-14T01:11:33;18.60;;;17.80;;
6121;SDS011;3091;51.506;7.672;2024-02-14T01:14:02;19.50;;;18.60;;
6121;SDS011;3091;51.506;7.672;2024-02-14T01:16:28;19.90;;;18.90;;
6121;SDS011;3091;51.506;7.672;2024-02-14T01:18:54;19.83;;;18.83;;
6121;SDS011;3091;51.506;7.672;2024-02-14T01:21:20;18.93;;;18.03;;
6121;SDS011;3091;51.506;7.672;2024-02-14T01:23:46;20.07;;;18.80;;
6121;SDS011;3091;51.506;7.672;2024-02-14T01:26:13;18.90;;;18.00;;
6121;SDS011;3091;51.506;7.672;2024-02-14T01:28:39;20.20;;;19.20;;
6121;SDS011;3091;51.506;7.672;2024-02-14T01:31:08;20.10;;;19.10;;
6121;SDS011;3091;51.506;7.672;2024-02-14T01:33:36;20.10;;;19.10;;
6121;SDS011;3091;51.506;7.672;2024-02-14T01:36:02;19.87;;;18.97;;
6121;SDS011;3091;51.506;7.672;2024-02-14T01:38:29;19.83;;;18.93;;
6121;SDS011;3091;51.506;7.672;2024-02-14T01:40:58;19.90;;;18.90;;
6121;SDS011;3091;51.506;7.672;2024-02-14T01:43:24;19.90;;;18.90;;
6121;SDS011;3091;51.506;7.672;2024-02-14T01:45:50;19.60;;;18.63;;
6121;SDS011;3091;51.506;7.672;2024-02-14T01:48:16;20.90;;;19.77;;
6121;SDS011;3091;51.506;7.672;2024-02-14T01:50:43;21.00;;;19.80;;
6121;SDS011;3091;51.506;7.672;2024-02-14T01:53:10;20.10;;;19.10;;
6121;SDS011;3091;51.506;7.672;2024-02-14T01:55:37;20.87;;;19.77;;
6121;SDS011;3091;51.506;7.672;2024-02-14T01:58:03;21.57;;;20.37;;
6121;SDS011;3091;51.506;7.672;2024-02-14T02:00:30;21.17;;;19.53;;
6121;SDS011;3091;51.506;7.672;2024-02-14T02:02:57;20.67;;;19.57;;
6121;SDS011;3091;51.506;7.672;2024-02-14T02:05:24;20.30;;;19.20;;
6121;SDS011;3091;51.506;7.672;2024-02-14T02:07:50;20.40;;;19.30;;
6121;SDS011;3091;51.506;7.672;2024-02-14T02:10:16;19.97;;;18.97;;
6121;SDS011;3091;51.506;7.672;2024-02-14T02:12:42;20.53;;;19.43;;
6121;SDS011;3091;51.506;7.672;2024-02-14T02:15:08;20.67;;;19.57;;
6121;SDS011;3091;51.506;7.672;2024-02-14T02:17:40;19.70;;;18.70;;
6121;SDS011;3091;51.506;7.672;2024-02-14T02:20:07;19.90;;;18.90;;
6121;SDS011;3091;51.506;7.672;2024-02-14T02:22:34;20.40;;;19.30;;
6121;SDS011;3091;51.506;7.672;2024-02-14T02:25:01;20.73;;;19.63;;
6121;SDS011;3091;51.506;7.672;2024-02-14T02:27:27;20.90;;;19.80;;
6121;SDS011;3091;51.506;7.672;2024-02-14T02:29:53;20.93;;;19.83;;
6121;SDS011;3091;51.506;7.672;2024-02-14T02:32:19;20.17;;;19.10;;
6121;SDS011;3091;51.506;7.672;2024-02-14T02:34:45;20.37;;;19.30;;
6121;SDS011;3091;51.506;7.672;2024-02-14T02:37:11;20.53;;;19.33;;
6121;SDS011;3091;51.506;7.672;2024-02-14T02:39:38;20.80;;;19.70;;
6121;SDS011;3091;51.506;7.672;2024-02-14T02:42:04;21.10;;;20.00;;
6121;SDS011;3091;51.506;7.672;2024-02-14T02:44:31;20.50;;;19.40;;
6121;SDS011;3091;51.506;7.672;2024-02-14T02:46:57;20.27;;;19.17;;
6121;SDS011;3091;51.506;7.672;2024-02-14T02:49:25;20.27;;;19.17;;
6121;SDS011;3091;51.506;7.672;2024-02-14T02:51:51;20.40;;;19.30;;
6121;SDS011;3091;51.506;7.672;2024-02-14T02:54:17;20.30;;;19.20;;
6121;SDS011;3091;51.506;7.672;2024-02-14T02:56:43;20.40;;;19.30;;
6121;SDS011;3091;51.506;7.672;2024-02-14T02:59:10;20.40;;;19.30;;
6121;SDS011;3091;51.506;7.672;2024-02-14T03:01:36;20.07;;;19.07;;
6121;SDS011;3091;51.506;7.672;2024-02-14T03:04:02;20.50;;;19.40;;
6121;SDS011;3091;51.506;7.672;2024-02-14T03:06:29;20.87;;;19.70;;
6121;SDS011;3091;51.506;7.672;2024-02-14T03:08:55;21.40;;;20.10;;
6121;SDS011;3091;51.506;7.672;2024-02-14T03:11:22;20.43;;;19.30;;
6121;SDS011;3091;51.506;7.672;2024-02-14T03:13:51;20.43;;;19.33;;
6121;SDS011;3091;51.506;7.672;2024-02-14T03:16:17;20.77;;;19.67;;
6121;SDS011;3091;51.506;7.672;2024-02-14T03:18:43;20.97;;;19.77;;
6121;SDS011;3091;51.506;7.672;2024-02-14T03:21:09;20.17;;;19.07;;
6121;SDS011;3091;51.506;7.672;2024-02-14T03:23:37;20.40;;;19.30;;
6121;SDS011;3091;51.506;7.672;2024-02-14T03:26:04;20.27;;;19.17;;
6121;SDS011;3091;51.506;7.672;2024-02-14T03:28:32;20.53;;;19.33;;
6121;SDS011;3091;51.506;7.672;2024-02-14T03:30:58;20.23;;;19.13;;
6121;SDS011;3091;51.506;7.672;2024-02-14T03:33:24;19.73;;;18.63;;
6121;SDS011;3091;51.506;7.672;2024-02-14T03:35:50;20.13;;;19.03;;
6121;SDS011;3091;51.506;7.672;2024-02-14T03:38:26;21.57;;;20.27;;
6121;SDS011;3091;51.506;7.672;2024-02-14T03:40:52;20.50;;;19.00;;
6121;SDS011;3091;51.506;7.672;2024-02-14T03:43:19;21.00;;;19.80;;
6121;SDS011;3091;51.506;7.672;2024-02-14T03:45:45;21.37;;;20.07;;
6121;SDS011;3091;51.506;7.672;2024-02-14T03:48:11;21.23;;;20.03;;
6121;SDS011;3091;51.506;7.672;2024-02-14T03:50:38;22.87;;;21.67;;
6121;SDS011;3091;51.506;7.672;2024-02-14T03:53:04;22.63;;;21.33;;
6121;SDS011;3091;51.506;7.672;2024-02-14T03:55:31;22.20;;;20.90;;
6121;SDS011;3091;51.506;7.672;2024-02-14T03:57:57;20.70;;;19.60;;
6121;SDS011;3091;51.506;7.672;2024-02-14T04:00:23;20.90;;;19.80;;
6121;SDS011;3091;51.506;7.672;2024-02-14T04:02:49;21.77;;;20.57;;
6121;SDS011;3091;51.506;7.672;2024-02-14T04:05:23;20.37;;;19.27;;
6121;SDS011;3091;51.506;7.672;2024-02-14T04:07:49;22.63;;;19.93;;
6121;SDS011;3091;51.506;7.672;2024-02-14T04:10:17;20.40;;;19.30;;
6121;SDS011;3091;51.506;7.672;2024-02-14T04:12:43;21.43;;;20.30;;
6121;SDS011;3091;51.506;7.672;2024-02-14T04:15:09;20.63;;;19.53;;
6121;SDS011;3091;51.506;7.672;2024-02-14T04:17:36;20.63;;;19.60;;
6121;SDS011;3091;51.506;7.672;2024-02-14T04:20:02;20.87;;;19.77;;
6121;SDS011;3091;51.506;7.672;2024-02-14T04:22:28;19.40;;;18.40;;
6121;SDS011;3091;51.506;7.672;2024-02-14T04:24:54;19.17;;;18.27;;
6121;SDS011;3091;51.506;7.672;2024-02-14T04:27:21;18.90;;;17.90;;
6121;SDS011;3091;51.506;7.672;2024-02-14T04:29:47;18.40;;;17.50;;
6121;SDS011;3091;51.506;7.672;2024-02-14T04:32:14;19.00;;;18.07;;
6121;SDS011;3091;51.506;7.672;2024-02-14T04:34:40;19.80;;;18.70;;
6121;SDS011;3091;51.506;7.672;2024-02-14T04:37:08;18.90;;;18.00;;
6121;SDS011;3091;51.506;7.672;2024-02-14T04:39:39;19.43;;;18.27;;
6121;SDS011;3091;51.506;7.672;2024-02-14T04:42:05;18.93;;;17.83;;
6121;SDS011;3091;51.506;7.672;2024-02-14T04:44:31;18.57;;;17.57;;
6121;SDS011;3091;51.506;7.672;2024-02-14T04:46:58;18.90;;;18.00;;
6121;SDS011;3091;51.506;7.672;2024-02-14T04:49:24;17.60;;;16.70;;
6121;SDS011;3091;51.506;7.672;2024-02-14T04:51:53;18.07;;;17.17;;
6121;SDS011;3091;51.506;7.672;2024-02-14T04:54:19;19.33;;;18.23;;
6121;SDS011;3091;51.506;7.672;2024-02-14T04:56:46;17.73;;;16.83;;
6121;SDS011;3091;51.506;7.672;2024-02-14T04:59:12;18.73;;;17.73;;
6121;SDS011;3091;51.506;7.672;2024-02-14T05:01:38;18.70;;;17.70;;
6121;SDS011;3091;51.506;7.672;2024-02-14T05:04:05;18.93;;;17.93;;
6121;SDS011;3091;51.506;7.672;2024-02-14T05:06:32;19.30;;;18.30;;
6121;SDS011;3091;51.506;7.672;2024-02-14T05:08:58;21.27;;;20.17;;
6121;SDS011;3091;51.506;7.672;2024-02-14T05:11:24;24.10;;;22.70;;
6121;SDS011;3091;51.506;7.672;2024-02-14T05:13:50;25.50;;;23.93;;
6121;SDS011;3091;51.506;7.672;2024-02-14T05:16:18;26.17;;;24.57;;
6121;SDS011;3091;51.506;7.672;2024-02-14T05:18:44;25.77;;;24.07;;
6121;SDS011;3091;51.506;7.672;2024-02-14T05:21:10;28.13;;;26.03;;
6121;SDS011;3091;51.506;7.672;2024-02-14T05:23:36;26.73;;;25.03;;
6121;SDS011;3091;51.506;7.672;2024-02-14T05:26:02;27.97;;;26.27;;
6121;SDS011;3091;51.506;7.672;2024-02-14T05:28:28;27.53;;;25.73;;
6121;SDS011;3091;51.506;7.672;2024-02-14T05:30:55;27.90;;;26.10;;
6121;SDS011;3091;51.506;7.672;2024-02-14T05:33:22;28.50;;;26.70;;
6121;SDS011;3091;51.506;7.672;2024-02-14T05:35:48;27.97;;;26.27;;
6121;SDS011;3091;51.506;7.672;2024-02-14T05:38:14;28.80;;;27.00;;
6121;SDS011;3091;51.506;7.672;2024-02-14T05:40:41;25.27;;;23.73;;
6121;SDS011;3091;51.506;7.672;2024-02-14T05:43:09;22.50;;;21.10;;
6121;SDS011;3091;51.506;7.672;2024-02-14T05:45:35;21.93;;;20.63;;
6121;SDS011;3091;51.506;7.672;2024-02-14T05:48:02;20.10;;;18.90;;
6121;SDS011;3091;51.506;7.672;2024-02-14T05:50:28;21.43;;;19.93;;
6121;SDS011;3091;51.506;7.672;2024-02-14T05:52:54;21.93;;;20.33;;
6121;SDS011;3091;51.506;7.672;2024-02-14T05:55:22;21.37;;;19.97;;
6121;SDS011;3091;51.506;7.672;2024-02-14T05:57:49;23.57;;;22.10;;
6121;SDS011;3091;51.506;7.672;2024-02-14T06:00:17;23.77;;;22.17;;
6121;SDS011;3091;51.506;7.672;2024-02-14T06:02:44;23.27;;;21.77;;
6121;SDS011;3091;51.506;7.672;2024-02-14T06:05:10;25.67;;;23.97;;
6121;SDS011;3091;51.506;7.672;2024-02-14T06:07:36;25.00;;;23.37;;
6121;SDS011;3091;51.506;7.672;2024-02-14T06:10:02;22.70;;;21.20;;
6121;SDS011;3091;51.506;7.672;2024-02-14T06:12:29;23.73;;;22.13;;
6121;SDS011;3091;51.506;7.672;2024-02-14T06:14:55;25.70;;;24.10;;
6121;SDS011;3091;51.506;7.672;2024-02-14T06:17:21;28.10;;;26.30;;
6121;SDS011;3091;51.506;7.672;2024-02-14T06:19:47;26.27;;;24.67;;
6121;SDS011;3091;51.506;7.672;2024-02-14T06:22:13;28.67;;;26.60;;
6121;SDS011;3091;51.506;7.672;2024-02-14T06:24:39;28.70;;;26.90;;
6121;SDS011;3091;51.506;7.672;2024-02-14T06:27:06;26.77;;;25.10;;
6121;SDS011;3091;51.506;7.672;2024-02-14T06:29:32;28.10;;;26.30;;
6121;SDS011;3091;51.506;7.672;2024-02-14T06:31:58;26.90;;;25.30;;
6121;SDS011;3091;51.506;7.672;2024-02-14T06:34:24;23.97;;;22.57;;
6121;SDS011;3091;51.506;7.672;2024-02-14T06:36:52;25.20;;;23.70;;
6121;SDS011;3091;51.506;7.672;2024-02-14T06:39:18;27.80;;;26.10;;
6121;SDS011;3091;51.506;7.672;2024-02-14T06:41:45;27.20;;;25.50;;
6121;SDS011;3091;51.506;7.672;2024-02-14T06:44:13;21.53;;;20.23;;
6121;SDS011;3091;51.506;7.672;2024-02-14T06:46:41;21.23;;;19.83;;
6121;SDS011;3091;51.506;7.672;2024-02-14T06:49:07;24.87;;;23.20;;
6121;SDS011;3091;51.506;7.672;2024-02-14T06:51:34;26.83;;;25.20;;
6121;SDS011;3091;51.506;7.672;2024-02-14T06:54:00;24.93;;;23.43;;
6121;SDS011;3091;51.506;7.672;2024-02-14T06:56:26;22.70;;;21.40;;
6121;SDS011;3091;51.506;7.672;2024-02-14T06:58:52;20.30;;;19.00;;
6121;SDS011;3091;51.506;7.672;2024-02-14T07:01:24;21.87;;;20.47;;
6121;SDS011;3091;51.506;7.672;2024-02-14T07:03:50;22.73;;;21.23;;
6121;SDS011;3091;51.506;7.672;2024-02-14T07:06:17;34.13;;;32.53;;
6121;SDS011;3091;51.506;7.672;2024-02-14T07:08:43;35.50;;;33.80;;
6121;SDS011;3091;51.506;7.672;2024-02-14T07:11:09;43.03;;;40.93;;
6121;SDS011;3091;51.506;7.672;2024-02-14T07:13:36;53.03;;;50.33;;
6121;SDS011;3091;51.506;7.672;2024-02-14T07:16:02;53.33;;;50.63;;
6121;SDS011;3091;51.506;7.672;2024-02-14T07:18:28;51.63;;;49.03;;
6121;SDS011;3091;51.506;7.672;2024-02-14T07:20:55;50.53;;;48.03;;
6121;SDS011;3091;51.506;7.672;2024-02-14T07:23:21;50.10;;;47.60;;
6121;SDS011;3091;51.506;7.672;2024-02-14T07:25:47;51.60;;;49.00;;
6121;SDS011;3091;51.506;7.672;2024-02-14T07:28:13;50.23;;;47.63;;
6121;SDS011;3091;51.506;7.672;2024-02-14T07:30:42;48.37;;;45.70;;
6121;SDS011;3091;51.506;7.672;2024-02-14T07:33:08;40.10;;;38.00;;
6121;SDS011;3091;51.506;7.672;2024-02-14T07:35:34;42.30;;;40.13;;
6121;SDS011;3091;51.506;7.672;2024-02-14T07:38:00;53.47;;;50.57;;
6121;SDS011;3091;51.506;7.672;2024-02-14T07:40:27;51.07;;;48.47;;
6121;SDS011;3091;51.506;7.672;2024-02-14T07:42:56;52.30;;;49.50;;
6121;SDS011;3091;51.506;7.672;2024-02-14T07:45:22;52.67;;;49.77;;
6121;SDS011;3091;51.506;7.672;2024-02-14T07:47:51;48.10;;;45.57;;
6121;SDS011;3091;51.506;7.672;2024-02-14T07:50:17;47.00;;;44.60;;
6121;SDS011;3091;51.506;7.672;2024-02-14T07:52:46;45.13;;;42.87;;
6121;SDS011;3091;51.506;7.672;2024-02-14T07:55:12;44.37;;;42.17;;
6121;SDS011;3091;51.506;7.672;2024-02-14T07:57:39;45.33;;;42.93;;
6121;SDS011;3091;51.506;7.672;2024-02-14T08:00:05;44.57;;;42.17;;
6121;SDS011;3091;51.506;7.672;2024-02-14T08:02:35;50.57;;;47.97;;
6121;SDS011;3091;51.506;7.672;2024-02-14T08:05:02;49.33;;;46.73;;
6121;SDS011;3091;51.506;7.672;2024-02-14T08:07:30;52.47;;;49.33;;
6121;SDS011;3091;51.506;7.672;2024-02-14T08:09:56;55.30;;;52.50;;
6121;SDS011;3091;51.506;7.672;2024-02-14T08:12:22;53.83;;;51.03;;
6121;SDS011;3091;51.506;7.672;2024-02-14T08:14:50;71.07;;;67.37;;
6121;SDS011;3091;51.506;7.672;2024-02-14T08:17:16;82.83;;;78.73;;
6121;SDS011;3091;51.506;7.672;2024-02-14T08:19:43;78.80;;;74.83;;
6121;SDS011;3091;51.506;7.672;2024-02-14T08:22:09;99.03;;;94.23;;
6121;SDS011;3091;51.506;7.672;2024-02-14T08:24:35;105.83;;;100.83;;
6121;SDS011;3091;51.506;7.672;2024-02-14T08:27:01;99.30;;;94.60;;
6121;SDS011;3091;51.506;7.672;2024-02-14T08:29:27;98.03;;;93.37;;
6121;SDS011;3091;51.506;7.672;2024-02-14T08:31:56;90.33;;;85.90;;
6121;SDS011;3091;51.506;7.672;2024-02-14T08:34:22;88.97;;;84.67;;
6121;SDS011;3091;51.506;7.672;2024-02-14T08:36:48;117.80;;;112.27;;
6121;SDS011;3091;51.506;7.672;2024-02-14T08:39:14;118.73;;;112.83;;
6121;SDS011;3091;51.506;7.672;2024-02-14T08:41:40;119.63;;;113.83;;
6121;SDS011;3091;51.506;7.672;2024-02-14T08:44:08;119.60;;;113.90;;
6121;SDS011;3091;51.506;7.672;2024-02-14T08:46:34;121.23;;;115.50;;
6121;SDS011;3091;51.506;7.672;2024-02-14T08:49:01;118.77;;;113.07;;
6121;SDS011;3091;51.506;7.672;2024-02-14T08:51:28;114.93;;;109.37;;
6121;SDS011;3091;51.506;7.672;2024-02-14T08:53:54;121.40;;;115.50;;
6121;SDS011;3091;51.506;7.672;2024-02-14T08:56:23;116.37;;;110.60;;
6121;SDS011;3091;51.506;7.672;2024-02-14T08:58:50;121.97;;;116.13;;
6121;SDS011;3091;51.506;7.672;2024-02-14T09:01:16;123.50;;;117.50;;
6121;SDS011;3091;51.506;7.672;2024-02-14T09:03:42;121.90;;;116.20;;
6121;SDS011;3091;51.506;7.672;2024-02-14T09:06:12;118.60;;;112.90;;
6121;SDS011;3091;51.506;7.672;2024-02-14T09:08:39;130.13;;;124.00;;
6121;SDS011;3091;51.506;7.672;2024-02-14T09:11:05;126.87;;;120.87;;
6121;SDS011;3091;51.506;7.672;2024-02-14T09:13:31;124.57;;;118.67;;
6121;SDS011;3091;51.506;7.672;2024-02-14T09:15:57;126.27;;;120.37;;
6121;SDS011;3091;51.506;7.672;2024-02-14T09:18:24;127.53;;;121.53;;
6121;SDS011;3091;51.506;7.672;2024-02-14T09:20:50;130.17;;;124.07;;
6121;SDS011;3091;51.506;7.672;2024-02-14T09:23:17;130.70;;;124.60;;
6121;SDS011;3091;51.506;7.672;2024-02-14T09:25:47;125.87;;;119.97;;
6121;SDS011;3091;51.506;7.672;2024-02-14T09:28:15;123.77;;;118.00;;
6121;SDS011;3091;51.506;7.672;2024-02-14T09:30:42;108.87;;;103.57;;
6121;SDS011;3091;51.506;7.672;2024-02-14T09:33:08;101.20;;;96.27;;
6121;SDS011;3091;51.506;7.672;2024-02-14T09:35:34;77.53;;;73.53;;
6121;SDS011;3091;51.506;7.672;2024-02-14T09:38:02;64.90;;;61.50;;
6121;SDS011;3091;51.506;7.672;2024-02-14T09:40:29;62.40;;;59.20;;
6121;SDS011;3091;51.506;7.672;2024-02-14T09:42:55;55.50;;;52.60;;
6121;SDS011;3091;51.506;7.672;2024-02-14T09:45:26;56.63;;;53.53;;
6121;SDS011;3091;51.506;7.672;2024-02-14T09:47:53;49.20;;;46.70;;
6121;SDS011;3091;51.506;7.672;2024-02-14T09:50:20;46.50;;;44.07;;
6121;SDS011;3091;51.506;7.672;2024-02-14T09:52:47;42.73;;;40.43;;
6121;SDS011;3091;51.506;7.672;2024-02-14T09:55:16;38.57;;;36.53;;
6121;SDS011;3091;51.506;7.672;2024-02-14T09:57:45;32.93;;;31.23;;
6121;SDS011;3091;51.506;7.672;2024-02-14T10:00:12;28.27;;;26.77;;
6121;SDS011;3091;51.506;7.672;2024-02-14T10:02:42;28.50;;;27.20;;
6121;SDS011;3091;51.506;7.672;2024-02-14T10:05:08;28.70;;;27.20;;
6121;SDS011;3091;51.506;7.672;2024-02-14T10:07:40;26.57;;;25.27;;
6121;SDS011;3091;51.506;7.672;2024-02-14T10:10:07;27.03;;;25.73;;
6121;SDS011;3091;51.506;7.672;2024-02-14T10:12:33;31.40;;;29.90;;
6121;SDS011;3091;51.506;7.672;2024-02-14T10:14:59;40.13;;;38.03;;
6121;SDS011;3091;51.506;7.672;2024-02-14T10:17:27;47.67;;;45.07;;
6121;SDS011;3091;51.506;7.672;2024-02-14T10:19:59;63.70;;;60.20;;
6121;SDS011;3091;51.506;7.672;2024-02-14T10:22:38;73.50;;;69.70;;
6121;SDS011;3091;51.506;7.672;2024-02-14T10:25:05;95.07;;;90.40;;
6121;SDS011;3091;51.506;7.672;2024-02-14T10:27:35;101.40;;;96.40;;
6121;SDS011;3091;51.506;7.672;2024-02-14T10:30:04;100.00;;;95.10;;
6121;SDS011;3091;51.506;7.672;2024-02-14T10:32:30;92.83;;;88.03;;
6121;SDS011;3091;51.506;7.672;2024-02-14T10:34:56;96.60;;;91.80;;
6121;SDS011;3091;51.506;7.672;2024-02-14T10:37:23;99.67;;;94.57;;
6121;SDS011;3091;51.506;7.672;2024-02-14T10:39:50;109.30;;;103.80;;
6121;SDS011;3091;51.506;7.672;2024-02-14T10:42:17;106.13;;;100.90;;
6121;SDS011;3091;51.506;7.672;2024-02-14T10:44:44;115.00;;;109.40;;
6121;SDS011;3091;51.506;7.672;2024-02-14T10:47:14;110.00;;;104.50;;
6121;SDS011;3091;51.506;7.672;2024-02-14T10:49:43;103.70;;;98.50;;
6121;SDS011;3091;51.506;7.672;2024-02-14T10:52:10;109.97;;;104.57;;
6121;SDS011;3091;51.506;7.672;2024-02-14T10:54:37;104.30;;;99.10;;
6121;SDS011;3091;51.506;7.672;2024-02-14T10:57:05;101.37;;;96.23;;
6121;SDS011;3091;51.506;7.672;2024-02-14T10:59:33;100.10;;;95.00;;
6121;SDS011;3091;51.506;7.672;2024-02-14T11:02:00;98.43;;;93.43;;
6121;SDS011;3091;51.506;7.672;2024-02-14T11:04:29;94.60;;;89.80;;
6121;SDS011;3091;51.506;7.672;2024-02-14T11:06:56;100.87;;;95.70;;
6121;SDS011;3091;51.506;7.672;2024-02-14T11:09:36;99.97;;;94.90;;
6121;SDS011;3091;51.506;7.672;2024-02-14T11:12:03;105.17;;;99.97;;
6121;SDS011;3091;51.506;7.672;2024-02-14T11:14:31;106.77;;;101.57;;
6121;SDS011;3091;51.506;7.672;2024-02-14T11:16:59;110.37;;;105.00;;
6121;SDS011;3091;51.506;7.672;2024-02-14T11:19:31;108.83;;;103.53;;
6121;SDS011;3091;51.506;7.672;2024-02-14T11:21:58;113.77;;;108.37;;
6121;SDS011;3091;51.506;7.672;2024-02-14T11:24:28;116.47;;;110.87;;
6121;SDS011;3091;51.506;7.672;2024-02-14T11:26:57;122.13;;;116.43;;
6121;SDS011;3091;51.506;7.672;2024-02-14T11:29:28;126.17;;;120.37;;
6121;SDS011;3091;51.506;7.672;2024-02-14T11:31:59;121.97;;;116.27;;
6121;SDS011;3091;51.506;7.672;2024-02-14T11:34:27;121.63;;;116.03;;
6121;SDS011;3091;51.506;7.672;2024-02-14T11:36:54;119.63;;;114.03;;
6121;SDS011;3091;51.506;7.672;2024-02-14T11:39:20;116.83;;;111.23;;
6121;SDS011;3091;51.506;7.672;2024-02-14T11:41:46;117.30;;;111.73;;
6121;SDS011;3091;51.506;7.672;2024-02-14T11:44:12;117.10;;;111.60;;
6121;SDS011;3091;51.506;7.672;2024-02-14T11:46:39;124.10;;;118.30;;
6121;SDS011;3091;51.506;7.672;2024-02-14T11:49:06;126.37;;;120.47;;
6121;SDS011;3091;51.506;7.672;2024-02-14T11:51:34;119.63;;;113.93;;
6121;SDS011;3091;51.506;7.672;2024-02-14T11:54:04;116.60;;;110.90;;
6121;SDS011;3091;51.506;7.672;2024-02-14T11:56:31;97.90;;;93.30;;
6121;SDS011;3091;51.506;7.672;2024-02-14T11:59:01;105.17;;;100.27;;
6121;SDS011;3091;51.506;7.672;2024-02-14T12:01:31;109.07;;;104.17;;
6121;SDS011;3091;51.506;7.672;2024-02-14T12:03:58;105.90;;;101.00;;
6121;SDS011;3091;51.506;7.672;2024-02-14T12:06:25;112.90;;;107.77;;
6121;SDS011;3091;51.506;7.672;2024-02-14T12:08:52;115.23;;;110.00;;
6121;SDS011;3091;51.506;7.672;2024-02-14T12:11:18;110.30;;;105.20;;
6121;SDS011;3091;51.506;7.672;2024-02-14T12:13:49;108.20;;;103.20;;
6121;SDS011;3091;51.506;7.672;2024-02-14T12:16:17;107.17;;;102.17;;
6121;SDS011;3091;51.506;7.672;2024-02-14T12:18:45;99.27;;;94.47;;
6121;SDS011;3091;51.506;7.672;2024-02-14T12:21:12;99.43;;;94.63;;
6121;SDS011;3091;51.506;7.672;2024-02-14T12:23:39;97.37;;;92.67;;
6121;SDS011;3091;51.506;7.672;2024-02-14T12:26:05;97.40;;;92.70;;
6121;SDS011;3091;51.506;7.672;2024-02-14T12:28:31;84.63;;;80.10;;
6121;SDS011;3091;51.506;7.672;2024-02-14T12:30:57;84.93;;;80.73;;
6121;SDS011;3091;51.506;7.672;2024-02-14T12:33:27;70.97;;;67.27;;
6121;SDS011;3091;51.506;7.672;2024-02-14T12:35:54;64.50;;;61.10;;
6121;SDS011;3091;51.506;7.672;2024-02-14T12:38:22;54.67;;;51.77;;
6121;SDS011;3091;51.506;7.672;2024-02-14T12:40:48;49.13;;;46.43;;
6121;SDS011;3091;51.506;7.672;2024-02-14T12:43:15;44.73;;;41.90;;
6121;SDS011;3091;51.506;7.672;2024-02-14T12:45:41;40.50;;;38.40;;
6121;SDS011;3091;51.506;7.672;2024-02-14T12:48:08;39.53;;;37.40;;
6121;SDS011;3091;51.506;7.672;2024-02-14T12:50:34;34.10;;;32.30;;
6121;SDS011;3091;51.506;7.672;2024-02-14T12:53:02;30.57;;;28.97;;
6121;SDS011;3091;51.506;7.672;2024-02-14T12:55:28;27.43;;;25.97;;
6121;SDS011;3091;51.506;7.672;2024-02-14T12:57:57;26.13;;;24.73;;
6121;SDS011;3091;51.506;7.672;2024-02-14T13:00:24;26.20;;;24.93;;
6121;SDS011;3091;51.506;7.672;2024-02-14T13:02:51;26.03;;;24.73;;
6121;SDS011;3091;51.506;7.672;2024-02-14T13:05:18;28.03;;;26.43;;
6121;SDS011;3091;51.506;7.672;2024-02-14T13:07:45;26.30;;;25.10;;
6121;SDS011;3091;51.506;7.672;2024-02-14T13:10:11;26.10;;;24.80;;
6121;SDS011;3091;51.506;7.672;2024-02-14T13:12:38;29.40;;;27.80;;
6121;SDS011;3091;51.506;7.672;2024-02-14T13:15:04;30.87;;;29.27;;
6121;SDS011;3091;51.506;7.672;2024-02-14T13:17:31;36.70;;;34.67;;
6121;SDS011;3091;51.506;7.672;2024-02-14T13:19:57;31.90;;;30.20;;
6121;SDS011;3091;51.506;7.672;2024-02-14T13:22:24;30.13;;;28.63;;
6121;SDS011;3091;51.506;7.672;2024-02-14T13:24:51;27.33;;;25.93;;
6121;SDS011;3091;51.506;7.672;2024-02-14T13:27:17;27.40;;;26.20;;
6121;SDS011;3091;51.506;7.672;2024-02-14T13:29:46;25.43;;;24.23;;
6121;SDS011;3091;51.506;7.672;2024-02-14T13:32:12;24.97;;;23.77;;
6121;SDS011;3091;51.506;7.672;2024-02-14T13:34:38;24.40;;;23.30;;
6121;SDS011;3091;51.506;7.672;2024-02-14T13:37:04;25.50;;;24.30;;
6121;SDS011;3091;51.506;7.672;2024-02-14T13:39:31;24.63;;;23.53;;
6121;SDS011;3091;51.506;7.672;2024-02-14T13:41:57;26.63;;;25.30;;
6121;SDS011;3091;51.506;7.672;2024-02-14T13:44:25;35.97;;;34.07;;
6121;SDS011;3091;51.506;7.672;2024-02-14T13:46:51;59.83;;;56.73;;
6121;SDS011;3091;51.506;7.672;2024-02-14T13:49:18;74.07;;;70.37;;
6121;SDS011;3091;51.506;7.672;2024-02-14T13:51:56;73.70;;;69.73;;
6121;SDS011;3091;51.506;7.672;2024-02-14T13:54:23;72.60;;;68.80;;
6121;SDS011;3091;51.506;7.672;2024-02-14T13:56:49;71.13;;;67.33;;
6121;SDS011;3091;51.506;7.672;2024-02-14T13:59:15;67.97;;;64.27;;
6121;SDS011;3091;51.506;7.672;2024-02-14T14:01:42;66.63;;;62.93;;
6121;SDS011;3091;51.506;7.672;2024-02-14T14:04:08;62.50;;;58.90;;
6121;SDS011;3091;51.506;7.672;2024-02-14T14:06:34;58.90;;;55.50;;
6121;SDS011;3091;51.506;7.672;2024-02-14T14:09:00;56.80;;;53.60;;
6121;SDS011;3091;51.506;7.672;2024-02-14T14:11:28;58.40;;;55.10;;
6121;SDS011;3091;51.506;7.672;2024-02-14T14:13:54;58.27;;;54.97;;
6121;SDS011;3091;51.506;7.672;2024-02-14T14:16:20;57.77;;;54.47;;
6121;SDS011;3091;51.506;7.672;2024-02-14T14:18:48;58.80;;;55.50;;
6121;SDS011;3091;51.506;7.672;2024-02-14T14:21:14;57.80;;;54.50;;
6121;SDS011;3091;51.506;7.672;2024-02-14T14:23:43;66.13;;;62.53;;
6121;SDS011;3091;51.506;7.672;2024-02-14T14:26:11;79.17;;;75.07;;
6121;SDS011;3091;51.506;7.672;2024-02-14T14:28:38;71.37;;;67.47;;
6121;SDS011;3091;51.506;7.672;2024-02-14T14:31:05;67.07;;;63.37;;
6121;SDS011;3091;51.506;7.672;2024-02-14T14:33:31;66.50;;;62.80;;
6121;SDS011;3091;51.506;7.672;2024-02-14T14:35:57;63.27;;;59.67;;
6121;SDS011;3091;51.506;7.672;2024-02-14T14:38:23;65.73;;;62.10;;
6121;SDS011;3091;51.506;7.672;2024-02-14T14:40:51;70.57;;;66.77;;